Time;durP1;ratioP1;P1;durP2;ratioP2;P2;SDS_P1;SDS_P2;PMS_P1;PMS_P2;Temp;Humidity;BMP_temperature;BMP_pressure;BME280_temperature;BME280_humidity;BME280_pressure;Samples;Min_cycle;Max_cycle;Signal;HPM_P1;HPM_P2
2023/06/30 00:01:32;;;;;;;47.50;3.30;;;;;;;25.18;57.41;98970.31;7319173;19;129427;-40
2023/06/30 00:03:58;;;;;;;30.95;2.75;;;;;;;25.19;57.93;98966.69;7318792;19;129301;-39
2023/06/30 00:06:24;;;;;;;25.27;2.03;;;;;;;25.18;57.86;98972.97;7317328;19;130214;-41
2023/06/30 00:08:49;;;;;;;29.43;2.50;;;;;;;25.18;57.81;98960.63;7317431;19;129007;-41
2023/06/30 00:11:16;;;;;;;21.70;2.03;;;;;;;25.08;57.44;98949.53;7318920;19;128702;-40
2023/06/30 00:13:44;;;;;;;20.95;2.13;;;;;;;25.18;57.28;98965.06;7318770;19;130670;-40
2023/06/30 00:16:10;;;;;;;34.85;2.75;;;;;;;25.15;57.90;98953.09;7317170;19;129577;-40
2023/06/30 00:18:35;;;;;;;18.40;1.63;;;;;;;25.18;57.96;98960.63;7318058;19;129381;-41
2023/06/30 00:21:02;;;;;;;6.40;1.10;;;;;;;25.20;57.50;98965.72;7318390;19;129064;-39
2023/06/30 00:23:28;;;;;;;28.95;2.53;;;;;;;25.17;57.86;98964.25;7317203;19;129287;-41
2023/06/30 00:25:54;;;;;;;27.87;2.50;;;;;;;25.06;57.79;98941.00;7316558;19;130058;-42
2023/06/30 00:28:20;;;;;;;29.63;2.53;;;;;;;25.18;57.96;98959.81;7318648;19;129202;-43
2023/06/30 00:30:45;;;;;;;32.70;2.50;;;;;;;25.11;58.01;98954.44;7318231;19;129025;-42
2023/06/30 00:33:11;;;;;;;29.37;2.37;;;;;;;25.18;57.51;98963.25;7317249;19;130060;-42
2023/06/30 00:35:36;;;;;;;30.83;2.83;;;;;;;25.18;57.40;98954.53;7316938;19;129727;-40
2023/06/30 00:38:02;;;;;;;37.10;2.73;;;;;;;25.18;57.42;98955.38;7317966;19;128969;-40
2023/06/30 00:40:27;;;;;;;14.10;1.33;;;;;;;25.19;57.59;98951.72;7317618;19;128795;-40
2023/06/30 00:42:52;;;;;;;40.10;2.97;;;;;;;25.19;57.65;98953.53;7317027;19;129180;-40
2023/06/30 00:45:18;;;;;;;31.17;2.47;;;;;;;25.16;57.68;98943.38;7317375;19;129625;-40
2023/06/30 00:47:43;;;;;;;33.97;2.60;;;;;;;25.19;57.58;98950.91;7314915;19;128910;-38
2023/06/30 00:50:09;;;;;;;27.53;2.30;;;;;;;25.17;57.92;98940.56;7317812;19;128980;-40
2023/06/30 00:52:35;;;;;;;36.35;3.03;;;;;;;25.18;57.72;98944.03;7316789;19;129568;-40
2023/06/30 00:55:01;;;;;;;40.60;3.27;;;;;;;25.18;57.91;98949.28;7316920;19;129331;-40
2023/06/30 00:57:26;;;;;;;48.30;3.57;;;;;;;25.18;57.32;98941.38;7315443;19;128845;-41
2023/06/30 00:59:51;;;;;;;45.93;3.30;;;;;;;25.19;57.27;98940.38;7317128;19;129454;-40
2023/06/30 01:02:22;;;;;;;23.23;1.87;;;;;;;25.15;57.83;98939.13;7317007;19;129027;-40
2023/06/30 01:04:56;;;;;;;39.15;3.25;;;;;;;25.17;57.47;98939.78;7316458;19;129273;-39
2023/06/30 01:07:37;;;;;;;33.83;2.72;;;;;;;25.18;58.16;98929.06;7314788;19;129214;-40
2023/06/30 01:10:11;;;;;;;71.28;5.13;;;;;;;25.20;57.60;98928.88;7316030;19;128672;-40
2023/06/30 01:12:38;;;;;;;52.60;3.90;;;;;;;25.14;57.65;98911.19;7316724;19;129968;-42
2023/06/30 01:15:05;;;;;;;65.93;4.88;;;;;;;25.18;57.67;98928.22;7315818;19;129767;-40
2023/06/30 01:17:33;;;;;;;24.52;2.13;;;;;;;25.18;57.58;98922.97;7314196;19;128881;-40
2023/06/30 01:20:00;;;;;;;25.10;2.35;;;;;;;25.16;57.77;98925.78;7316387;19;128852;-42
2023/06/30 01:22:41;;;;;;;19.23;1.67;;;;;;;25.21;57.49;98925.25;7316347;19;129624;-43
2023/06/30 01:25:10;;;;;;;17.25;1.63;;;;;;;25.17;57.75;98919.50;7316615;19;129986;-40
2023/06/30 01:27:38;;;;;;;33.42;2.92;;;;;;;25.15;57.91;98918.06;7313500;19;128997;-42
2023/06/30 01:30:08;;;;;;;26.65;2.33;;;;;;;25.18;58.20;98920.34;7316427;19;130018;-40
2023/06/30 01:32:34;;;;;;;23.85;2.20;;;;;;;25.06;57.89;98908.59;7316160;19;130237;-41
2023/06/30 01:35:00;;;;;;;53.97;4.30;;;;;;;25.18;57.33;98918.53;7316142;19;129622;-39
2023/06/30 01:37:25;;;;;;;12.43;1.70;;;;;;;25.18;57.68;98915.09;7313587;19;129069;-41
2023/06/30 01:39:50;;;;;;;26.90;2.40;;;;;;;25.18;57.81;98915.09;7315305;19;129043;-41
2023/06/30 01:42:18;;;;;;;23.23;2.03;;;;;;;25.17;58.25;98910.84;7315009;19;129477;-40
2023/06/30 01:44:45;;;;;;;29.20;2.45;;;;;;;25.17;57.37;98905.56;7314845;19;129631;-40
2023/06/30 01:47:11;;;;;;;24.13;2.13;;;;;;;25.18;57.73;98901.94;7313852;19;129070;-40
2023/06/30 01:49:37;;;;;;;29.80;2.47;;;;;;;25.18;57.38;98902.75;7315725;19;129336;-41
2023/06/30 01:52:03;;;;;;;34.47;2.47;;;;;;;25.08;57.36;98886.41;7315552;19;129581;-42
2023/06/30 01:54:29;;;;;;;45.97;3.33;;;;;;;25.17;58.21;98901.09;7315195;19;130227;-41
2023/06/30 01:56:54;;;;;;;27.60;2.30;;;;;;;25.09;57.37;98892.50;7314367;19;129191;-42
2023/06/30 01:59:19;;;;;;;38.47;2.93;;;;;;;25.19;57.41;98906.19;7315048;19;129391;-42
2023/06/30 02:01:46;;;;;;;19.20;1.67;;;;;;;25.19;57.40;98903.56;7316008;19;129450;-40
2023/06/30 02:04:11;;;;;;;24.30;2.15;;;;;;;25.18;57.96;98901.94;7315396;19;129665;-42
2023/06/30 02:06:36;;;;;;;34.27;2.60;;;;;;;25.18;57.74;98902.75;7313688;19;128882;-39
2023/06/30 02:09:02;;;;;;;24.83;2.30;;;;;;;25.18;57.44;98897.50;7315921;19;128792;-39
2023/06/30 02:11:27;;;;;;;19.23;1.97;;;;;;;25.19;58.11;98898.28;7314639;19;129214;-40
2023/06/30 02:13:53;;;;;;;35.27;2.73;;;;;;;25.18;57.67;98896.66;7314818;19;130448;-41
2023/06/30 02:16:18;;;;;;;18.33;1.73;;;;;;;25.18;57.44;98896.66;7311195;19;129015;-40
2023/06/30 02:18:43;;;;;;;41.47;3.03;;;;;;;25.18;57.33;98886.97;7315286;19;129450;-43
2023/06/30 02:21:09;;;;;;;50.93;3.87;;;;;;;25.18;57.69;98897.50;7315230;19;130271;-40
2023/06/30 02:23:34;;;;;;;48.43;3.53;;;;;;;25.19;57.66;98895.66;7314506;19;129898;-41
2023/06/30 02:25:59;;;;;;;30.67;2.67;;;;;;;25.09;57.93;98876.72;7313528;19;128888;-41
2023/06/30 02:28:25;;;;;;;25.10;2.23;;;;;;;25.15;57.84;98891.78;7314467;19;128776;-38
2023/06/30 02:30:50;;;;;;;23.10;2.00;;;;;;;25.08;57.83;98873.25;7315070;19;128955;-38
2023/06/30 02:33:16;;;;;;;41.60;3.40;;;;;;;25.18;57.74;98880.88;7312867;19;129625;-40
2023/06/30 02:35:41;;;;;;;42.37;2.93;;;;;;;25.18;57.34;98888.78;7313060;19;129424;-42
2023/06/30 02:38:07;;;;;;;34.67;2.87;;;;;;;25.15;57.54;98882.06;7312923;19;129167;-41
2023/06/30 02:40:32;;;;;;;33.83;2.63;;;;;;;25.18;57.58;98899.28;7313751;19;132294;-42
2023/06/30 02:42:58;;;;;;;26.53;2.27;;;;;;;25.18;58.21;98891.41;7314271;19;129548;-40
2023/06/30 02:45:24;;;;;;;16.93;1.63;;;;;;;25.18;57.52;98894.03;7313319;19;129304;-43
2023/06/30 02:47:49;;;;;;;26.27;2.33;;;;;;;25.19;57.71;98898.28;7311164;19;129019;-41
2023/06/30 02:50:15;;;;;;;17.00;1.70;;;;;;;25.19;57.72;98898.28;7314518;19;129406;-41
2023/06/30 02:52:40;;;;;;;38.23;3.07;;;;;;;25.19;58.20;98903.56;7311583;19;129461;-41
2023/06/30 02:55:06;;;;;;;18.83;1.67;;;;;;;25.18;57.80;98899.28;7313225;19;128815;-42
2023/06/30 02:57:31;;;;;;;38.97;2.93;;;;;;;25.18;57.72;98896.66;7311608;19;129209;-42
2023/06/30 02:59:56;;;;;;;17.70;1.67;;;;;;;25.18;57.61;98892.22;7312813;19;129051;-41
2023/06/30 03:02:22;;;;;;;32.77;2.60;;;;;;;25.18;58.01;98886.97;7313147;19;129313;-40
2023/06/30 03:04:47;;;;;;;72.80;4.97;;;;;;;25.17;57.61;98889.78;7313585;19;129009;-40
2023/06/30 03:07:13;;;;;;;27.50;2.23;;;;;;;25.18;58.13;98891.41;7311335;19;129820;-41
2023/06/30 03:09:38;;;;;;;14.13;1.57;;;;;;;25.18;57.85;98886.97;7313244;19;129342;-41
2023/06/30 03:12:04;;;;;;;59.47;4.53;;;;;;;25.18;57.80;98896.66;7312031;19;129731;-41
2023/06/30 03:14:29;;;;;;;44.43;3.20;;;;;;;25.17;57.46;98892.41;7313333;19;129469;-41
2023/06/30 03:16:55;;;;;;;52.43;3.83;;;;;;;25.18;57.89;98902.75;7309653;19;129073;-40
2023/06/30 03:19:20;;;;;;;43.93;2.93;;;;;;;25.16;57.71;98898.66;7312981;19;129738;-42
2023/06/30 03:21:45;;;;;;;27.67;2.40;;;;;;;25.18;57.92;98896.66;7311582;19;129030;-42
2023/06/30 03:24:11;;;;;;;21.10;1.90;;;;;;;25.18;57.63;98900.13;7312944;19;129167;-43
2023/06/30 03:26:36;;;;;;;28.00;2.33;;;;;;;25.17;57.90;98901.09;7310963;19;129162;-42
2023/06/30 03:29:01;;;;;;;37.30;2.77;;;;;;;25.17;57.93;98900.31;7318710;19;129360;-40
2023/06/30 03:31:27;;;;;;;30.50;2.50;;;;;;;25.17;57.51;98893.22;7317305;19;129090;-40
2023/06/30 03:33:52;;;;;;;26.60;2.13;;;;;;;25.18;57.88;98894.03;7319433;19;128934;-39
2023/06/30 03:36:18;;;;;;;35.63;2.90;;;;;;;25.18;57.59;98891.41;7318076;19;130056;-41
2023/06/30 03:38:43;;;;;;;26.23;2.17;;;;;;;25.18;58.20;98891.41;7318113;19;129087;-39
2023/06/30 03:41:09;;;;;;;29.30;2.33;;;;;;;25.19;57.92;98900.91;7319809;19;130116;-40
2023/06/30 03:43:34;;;;;;;25.73;1.93;;;;;;;25.19;57.52;98900.91;7319165;19;128919;-41
2023/06/30 03:45:59;;;;;;;29.53;2.40;;;;;;;25.08;58.16;98880.31;7318088;19;128945;-40
2023/06/30 03:48:25;;;;;;;19.63;2.00;;;;;;;25.19;57.58;98895.66;7318159;19;130997;-40
2023/06/30 03:50:54;;;;;;;21.23;1.93;;;;;;;25.17;57.69;98890.56;7319869;19;129630;-40
2023/06/30 03:53:20;;;;;;;34.10;2.53;;;;;;;25.16;58.18;98896.03;7318892;19;129518;-39
2023/06/30 03:55:45;;;;;;;24.92;2.10;;;;;;;25.17;57.53;98893.22;7318481;19;129159;-39
2023/06/30 03:58:11;;;;;;;37.10;2.97;;;;;;;25.18;57.75;98886.97;7317798;19;129172;-40
2023/06/30 04:00:36;;;;;;;26.67;2.20;;;;;;;25.18;57.91;98886.97;7319947;19;129252;-39
2023/06/30 04:03:01;;;;;;;26.80;2.20;;;;;;;25.17;57.55;98890.56;7319145;19;128904;-39
2023/06/30 04:05:27;;;;;;;21.17;1.77;;;;;;;25.16;57.96;98894.22;7315296;19;129065;-39
2023/06/30 04:07:52;;;;;;;35.53;2.60;;;;;;;25.17;58.30;98900.31;7313147;19;129186;-39
2023/06/30 04:10:17;;;;;;;153.60;10.37;;;;;;;25.19;57.95;98898.28;7280959;19;133473;-41
2023/06/30 04:12:43;;;;;;;101.43;7.00;;;;;;;25.14;57.86;98901.47;7304816;19;130828;-41
2023/06/30 04:15:10;;;;;;;41.83;3.47;;;;;;;25.20;57.70;98900.78;7305244;19;131198;-40
2023/06/30 04:17:36;;;;;;;62.20;4.60;;;;;;;25.18;58.08;98901.94;7303244;19;131147;-39
2023/06/30 04:20:06;;;;;;;63.10;4.60;;;;;;;25.23;58.51;98905.66;7305532;19;129399;-40
2023/06/30 04:22:32;;;;;;;74.38;5.18;;;;;;;25.19;58.77;98898.28;7308005;19;129823;-40
2023/06/30 04:24:57;;;;;;;118.73;8.20;;;;;;;25.19;58.30;98898.28;7304356;19;130207;-40
2023/06/30 04:27:23;;;;;;;64.23;4.73;;;;;;;25.23;58.66;98896.94;7306464;19;130356;-39
2023/06/30 04:29:48;;;;;;;45.67;3.57;;;;;;;25.24;58.42;98901.19;7305991;19;129515;-41
2023/06/30 04:32:13;;;;;;;62.53;4.93;;;;;;;25.23;58.10;98899.56;7306288;19;130174;-38
2023/06/30 04:34:39;;;;;;;76.90;5.50;;;;;;;25.27;58.40;98900.88;7306747;19;129566;-40
2023/06/30 04:37:04;;;;;;;75.10;5.23;;;;;;;25.14;58.38;98877.00;7302918;19;130464;-40
2023/06/30 04:39:30;;;;;;;84.43;5.90;;;;;;;25.31;58.83;98896.84;7305270;19;130378;-41
2023/06/30 04:41:55;;;;;;;89.23;6.30;;;;;;;25.24;58.76;98877.53;7306397;19;129094;-40
2023/06/30 04:44:20;;;;;;;57.20;4.17;;;;;;;25.34;58.34;98888.59;7306351;19;129856;-41
2023/06/30 04:46:46;;;;;;;66.37;4.90;;;;;;;25.35;58.36;98887.66;7304374;19;130542;-40
2023/06/30 04:49:11;;;;;;;61.83;4.67;;;;;;;25.23;58.57;98868.84;7302366;19;130704;-39
2023/06/30 04:51:36;;;;;;;62.93;4.47;;;;;;;25.36;58.31;98889.28;7305106;19;129159;-40
2023/06/30 04:54:01;;;;;;;84.47;5.77;;;;;;;25.36;57.94;98878.75;7301793;19;130697;-39
2023/06/30 04:56:27;;;;;;;90.50;6.47;;;;;;;25.36;58.14;98876.13;7298791;19;129257;-41
2023/06/30 04:58:52;;;;;;;86.70;6.07;;;;;;;25.35;58.36;98874.50;7303988;19;130872;-40
2023/06/30 05:01:18;;;;;;;68.27;5.07;;;;;;;25.36;58.20;98884.84;7304157;19;129393;-39
2023/06/30 05:03:43;;;;;;;88.70;5.90;;;;;;;25.25;57.75;98866.84;7304180;19;130767;-42
2023/06/30 05:06:08;;;;;;;88.67;5.97;;;;;;;25.33;58.49;98879.09;7303542;19;130256;-39
2023/06/30 05:08:34;;;;;;;84.97;5.97;;;;;;;25.33;58.01;98881.72;7300681;19;129929;-39
2023/06/30 05:10:59;;;;;;;73.90;5.27;;;;;;;25.30;58.21;98874.19;7302077;19;131182;-41
2023/06/30 05:13:26;;;;;;;61.87;4.97;;;;;;;25.31;58.38;98873.19;7303751;19;129479;-42
2023/06/30 05:15:52;;;;;;;66.50;5.03;;;;;;;25.30;58.01;98876.81;7298768;19;129917;-42
2023/06/30 05:18:17;;;;;;;73.63;5.10;;;;;;;25.32;57.76;98877.47;7303297;19;130393;-41
2023/06/30 05:20:43;;;;;;;71.63;5.10;;;;;;;25.31;57.82;98873.19;7303978;19;130472;-38
2023/06/30 05:23:08;;;;;;;53.57;4.37;;;;;;;25.30;57.89;98876.81;7300448;19;130130;-39
2023/06/30 05:25:34;;;;;;;81.67;6.07;;;;;;;25.30;58.04;98882.88;7303495;19;130373;-41
2023/06/30 05:27:59;;;;;;;66.63;5.07;;;;;;;25.28;58.46;98876.19;7301128;19;130825;-41
2023/06/30 05:30:25;;;;;;;77.33;5.70;;;;;;;25.20;58.13;98863.94;7304119;19;130107;-40
2023/06/30 05:32:50;;;;;;;72.37;5.33;;;;;;;25.27;57.93;98880.59;7302600;19;130040;-38
2023/06/30 05:35:15;;;;;;;65.03;4.90;;;;;;;25.27;57.79;98875.34;7304057;19;129876;-39
2023/06/30 05:37:41;;;;;;;83.40;5.90;;;;;;;25.27;57.69;98864.81;7300830;19;129800;-38
2023/06/30 05:40:06;;;;;;;69.63;5.20;;;;;;;25.24;57.72;98859.09;7306372;19;130272;-40
2023/06/30 05:42:32;;;;;;;87.00;6.43;;;;;;;25.24;57.68;98865.19;7304510;19;130399;-39
2023/06/30 05:44:57;;;;;;;111.47;8.30;;;;;;;25.26;58.39;98879.00;7304163;19;130545;-38
2023/06/30 05:47:22;;;;;;;50.93;3.80;;;;;;;25.29;58.26;98877.78;7302740;19;129712;-40
2023/06/30 05:49:48;;;;;;;61.33;4.37;;;;;;;25.16;57.90;98867.09;7303626;19;129443;-41
2023/06/30 05:52:13;;;;;;;61.97;4.90;;;;;;;25.26;58.10;98875.53;7305314;19;131574;-38
2023/06/30 05:54:38;;;;;;;74.93;5.83;;;;;;;25.27;58.07;98879.81;7303816;19;130293;-41
2023/06/30 05:57:04;;;;;;;61.80;4.77;;;;;;;25.27;58.09;98885.06;7302538;19;130079;-41
2023/06/30 05:59:30;;;;;;;88.97;6.13;;;;;;;25.27;58.49;98882.44;7305153;19;130287;-38
2023/06/30 06:01:56;;;;;;;90.77;6.60;;;;;;;25.26;58.46;98872.91;7305473;19;130423;-39
2023/06/30 06:04:22;;;;;;;41.50;3.47;;;;;;;25.27;58.34;98869.28;7305073;19;129238;-39
2023/06/30 06:06:47;;;;;;;54.90;4.27;;;;;;;25.27;58.06;98872.72;7303637;19;130787;-38
2023/06/30 06:09:13;;;;;;;76.13;5.80;;;;;;;25.28;57.69;98870.91;7304622;19;129115;-38
2023/06/30 06:11:39;;;;;;;38.50;3.43;;;;;;;25.20;58.08;98855.22;7304741;19;130457;-41
2023/06/30 06:14:04;;;;;;;56.85;4.38;;;;;;;25.27;58.00;98877.19;7303864;19;130415;-41
2023/06/30 06:16:30;;;;;;;68.77;5.37;;;;;;;25.27;58.55;98874.56;7302125;19;130360;-40
2023/06/30 06:18:55;;;;;;;52.80;4.20;;;;;;;25.27;58.01;98874.56;7305149;19;129555;-39
2023/06/30 06:21:26;;;;;;;57.70;4.43;;;;;;;25.28;58.53;98868.28;7304878;19;130225;-36
2023/06/30 06:23:52;;;;;;;76.47;5.72;;;;;;;25.26;58.45;98865.00;7304993;19;129842;-38
2023/06/30 06:26:17;;;;;;;62.70;4.93;;;;;;;25.26;57.58;98863.19;7304092;19;129541;-39
2023/06/30 06:28:42;;;;;;;59.80;4.67;;;;;;;25.27;58.08;98864.03;7299741;19;129450;-40
2023/06/30 06:31:09;;;;;;;66.30;4.80;;;;;;;25.24;58.15;98861.72;7303448;19;130832;-40
2023/06/30 06:33:35;;;;;;;82.45;5.95;;;;;;;25.24;58.54;98865.19;7300912;19;130453;-39
2023/06/30 06:36:00;;;;;;;69.30;5.23;;;;;;;25.26;58.46;98872.91;7302474;19;130960;-41
2023/06/30 06:38:26;;;;;;;76.97;5.77;;;;;;;25.25;58.09;98872.09;7299941;19;130199;-38
2023/06/30 06:40:51;;;;;;;60.97;4.70;;;;;;;25.27;57.77;98869.28;7303315;19;130186;-37
2023/06/30 06:43:16;;;;;;;89.27;6.17;;;;;;;25.26;58.50;98873.72;7303827;19;130888;-38
2023/06/30 06:45:42;;;;;;;68.27;5.00;;;;;;;25.27;58.02;98874.56;7299708;19;129543;-39
2023/06/30 06:48:28;;;;;;;64.67;5.03;;;;;;;25.28;58.04;98871.75;7302739;19;130950;-39
2023/06/30 06:50:58;;;;;;;79.75;5.88;;;;;;;25.25;58.14;98879.19;7303890;19;128895;-38
2023/06/30 06:53:33;;;;;;;70.85;5.20;;;;;;;25.27;58.52;98890.34;7302915;19;129678;-37
2023/06/30 06:55:59;;;;;;;67.22;5.00;;;;;;;25.24;58.03;98888.03;7303981;19;129653;-39
2023/06/30 06:58:28;;;;;;;70.97;5.53;;;;;;;25.25;58.35;98884.44;7302251;19;129763;-41
2023/06/30 07:00:53;;;;;;;78.97;5.78;;;;;;;25.17;58.25;98868.75;7303911;19;129045;-37
2023/06/30 07:03:19;;;;;;;58.47;4.53;;;;;;;25.22;58.29;98882.16;7302501;19;130194;-37
2023/06/30 07:05:45;;;;;;;52.57;4.17;;;;;;;25.26;58.21;98893.94;7303239;19;130250;-37
2023/06/30 07:08:11;;;;;;;90.03;6.43;;;;;;;25.26;58.22;98893.94;7301859;19;129757;-39
2023/06/30 07:10:37;;;;;;;85.65;6.13;;;;;;;25.25;58.55;98897.59;7304040;19;129722;-40
2023/06/30 07:13:03;;;;;;;78.23;5.60;;;;;;;25.25;58.38;98898.41;7298850;19;129854;-41
2023/06/30 07:15:29;;;;;;;68.53;5.23;;;;;;;25.25;57.91;98894.97;7300002;19;130177;-39
2023/06/30 07:17:56;;;;;;;68.23;5.23;;;;;;;25.23;58.13;98883.78;7300254;19;130128;-39
2023/06/30 07:20:22;;;;;;;36.53;3.17;;;;;;;25.25;57.95;98892.31;7303507;19;129064;-40
2023/06/30 07:22:47;;;;;;;49.30;3.97;;;;;;;25.25;58.71;98897.59;7302733;19;129865;-40
2023/06/30 07:25:13;;;;;;;56.47;4.43;;;;;;;25.26;57.78;98893.94;7303386;19;130984;-40
2023/06/30 07:27:39;;;;;;;70.03;5.40;;;;;;;25.25;57.78;98889.69;7300433;19;130183;-36
2023/06/30 07:30:06;;;;;;;56.97;4.40;;;;;;;25.23;58.44;98889.06;7302748;19;129712;-38
2023/06/30 07:32:34;;;;;;;;;;;;;;;25.35;58.30;98890.28;7302607;19;130281;-42
2023/06/30 07:35:02;;;;;;;96.03;7.03;;;;;;;25.27;57.96;98898.22;7302724;19;129478;-39
2023/06/30 07:37:28;;;;;;;79.35;5.45;;;;;;;25.16;58.54;98888.97;7301528;19;129955;-39
2023/06/30 07:39:53;;;;;;;73.67;5.87;;;;;;;25.26;57.86;98899.22;7299148;19;130164;-40
2023/06/30 07:42:18;;;;;;;44.83;3.70;;;;;;;25.26;58.25;98900.03;7301724;19;129077;-40
2023/06/30 07:44:44;;;;;;;75.43;5.57;;;;;;;25.25;58.22;98900.22;7302712;19;130268;-39
2023/06/30 07:47:09;;;;;;;67.07;5.30;;;;;;;25.25;57.95;98908.13;7299464;19;129151;-40
2023/06/30 07:49:35;;;;;;;57.20;4.43;;;;;;;25.25;58.06;98892.31;7302481;19;129914;-36
2023/06/30 07:52:00;;;;;;;67.40;5.13;;;;;;;25.14;58.17;98869.91;7304579;19;129324;-39
2023/06/30 07:54:25;;;;;;;69.07;5.13;;;;;;;25.25;57.93;98892.31;7300931;19;129372;-38
2023/06/30 07:56:51;;;;;;;57.30;4.40;;;;;;;25.25;58.22;98897.59;7301547;19;129314;-40
2023/06/30 07:59:16;;;;;;;79.00;5.67;;;;;;;25.26;57.99;98888.69;7302237;19;128999;-39
2023/06/30 08:01:41;;;;;;;77.60;5.73;;;;;;;25.14;58.13;98874.38;7300943;19;131422;-42
2023/06/30 08:04:07;;;;;;;68.67;5.20;;;;;;;25.17;57.86;98889.78;7302127;19;129594;-40
2023/06/30 08:06:32;;;;;;;81.13;5.77;;;;;;;25.25;58.00;98897.59;7300910;19;129943;-37
2023/06/30 08:08:58;;;;;;;88.00;6.07;;;;;;;25.15;58.55;98886.50;7299723;19;129596;-42
2023/06/30 08:11:25;;;;;;;64.17;4.87;;;;;;;25.19;58.28;98891.22;7299741;19;132522;-40
2023/06/30 08:13:51;;;;;;;51.17;4.20;;;;;;;25.25;58.56;98894.97;7305813;19;129358;-39
2023/06/30 08:16:16;;;;;;;69.70;5.47;;;;;;;25.25;57.99;98902.84;7307601;19;129930;-40
2023/06/30 08:18:42;;;;;;;56.97;4.60;;;;;;;25.25;58.57;98894.97;7308889;19;129002;-40
2023/06/30 08:21:07;;;;;;;64.30;4.70;;;;;;;25.26;58.09;98905.31;7308229;19;129056;-38
2023/06/30 08:23:32;;;;;;;75.93;5.87;;;;;;;25.25;58.23;98900.22;7308189;19;130687;-41
2023/06/30 08:25:58;;;;;;;65.57;4.87;;;;;;;25.25;58.37;98903.69;7306725;19;129594;-40
2023/06/30 08:28:23;;;;;;;25.07;2.70;;;;;;;25.26;57.95;98907.09;7307873;19;129820;-39
2023/06/30 08:30:48;;;;;;;62.80;5.00;;;;;;;25.25;58.07;98908.13;7307124;19;131260;-41
2023/06/30 08:33:14;;;;;;;78.73;5.83;;;;;;;25.24;57.99;98903.84;7309521;19;130009;-41
2023/06/30 08:35:39;;;;;;;57.07;4.33;;;;;;;25.22;58.20;98909.28;7307226;19;129430;-39
2023/06/30 08:38:05;;;;;;;56.57;4.20;;;;;;;25.24;58.09;98909.09;7307697;19;130423;-37
2023/06/30 08:40:31;;;;;;;57.40;4.20;;;;;;;25.25;57.61;98918.63;7308177;19;131351;-39
2023/06/30 08:43:02;;;;;;;53.95;4.30;;;;;;;25.24;58.29;98912.56;7309126;19;130952;-42
2023/06/30 08:45:29;;;;;;;84.20;6.55;;;;;;;25.24;58.34;98917.00;7306304;19;129602;-39
2023/06/30 08:48:02;;;;;;;48.72;3.88;;;;;;;25.24;58.43;98914.34;7305929;19;129535;-38
2023/06/30 08:50:28;;;;;;;59.40;4.63;;;;;;;25.23;58.49;98910.09;7307889;19;130381;-39
2023/06/30 08:52:55;;;;;;;47.25;3.70;;;;;;;25.24;58.18;98901.19;7306586;19;129099;-40
2023/06/30 08:55:20;;;;;;;71.55;5.07;;;;;;;25.24;58.31;98906.47;7307543;19;130137;-39
2023/06/30 08:57:46;;;;;;;73.53;5.67;;;;;;;25.24;58.53;98901.19;7305168;19;130299;-39
2023/06/30 09:00:11;;;;;;;42.77;3.60;;;;;;;25.25;58.60;98902.84;7305834;19;130032;-41
2023/06/30 09:02:38;;;;;;;75.07;5.57;;;;;;;25.13;58.66;98876.16;7308226;19;129565;-39
2023/06/30 09:05:04;;;;;;;80.78;6.03;;;;;;;25.24;57.95;98891.50;7305527;19;130916;-38
2023/06/30 09:07:38;;;;;;;54.30;4.30;;;;;;;25.23;58.15;98889.06;7305663;19;130195;-38
2023/06/30 09:10:05;;;;;;;59.17;4.50;;;;;;;25.14;58.43;98887.50;7306893;19;130777;-37
2023/06/30 09:12:31;;;;;;;80.43;6.05;;;;;;;25.23;58.64;98904.84;7306415;19;130457;-40
2023/06/30 09:15:01;;;;;;;95.43;6.87;;;;;;;25.24;58.26;98911.72;7308003;19;129882;-38
2023/06/30 09:17:27;;;;;;;92.43;6.13;;;;;;;25.14;58.28;98890.94;7304323;19;129868;-37
2023/06/30 09:19:53;;;;;;;64.57;5.03;;;;;;;25.24;58.29;98909.09;7307088;19;130522;-41
2023/06/30 09:22:20;;;;;;;47.23;3.83;;;;;;;25.25;58.74;98897.59;7305705;19;130975;-40
2023/06/30 09:24:45;;;;;;;53.65;4.38;;;;;;;25.24;58.25;98901.19;7307664;19;130127;-38
2023/06/30 09:27:11;;;;;;;80.23;6.03;;;;;;;25.24;58.47;98896.75;7304356;19;129021;-38
2023/06/30 09:29:36;;;;;;;63.93;4.87;;;;;;;25.24;58.55;98893.31;7304757;19;129852;-39
2023/06/30 09:32:03;;;;;;;56.43;4.63;;;;;;;25.25;58.06;98887.06;7308119;19;130021;-38
2023/06/30 09:34:29;;;;;;;58.17;4.57;;;;;;;25.22;58.42;98884.81;7304943;19;129805;-38
2023/06/30 09:36:55;;;;;;;43.80;3.63;;;;;;;25.23;58.73;98889.06;7304707;19;130816;-42
2023/06/30 09:39:21;;;;;;;76.97;5.78;;;;;;;25.22;58.34;98897.97;7304976;19;129506;-40
2023/06/30 09:41:49;;;;;;;80.60;6.07;;;;;;;25.23;58.04;98895.16;7306670;19;130654;-38
2023/06/30 09:44:20;;;;;;;64.40;4.78;;;;;;;25.23;58.77;98889.06;7305985;19;130029;-37
2023/06/30 09:46:53;;;;;;;82.25;6.03;;;;;;;25.19;58.25;98883.34;7303215;19;129674;-40
2023/06/30 09:49:32;;;;;;;70.95;5.30;;;;;;;25.24;58.71;98895.94;7304426;19;130086;-40
2023/06/30 09:51:59;;;;;;;56.55;4.45;;;;;;;25.14;58.07;98877.78;7305399;19;129645;-39
2023/06/30 09:54:25;;;;;;;61.60;4.78;;;;;;;25.21;57.99;98894.50;7306141;19;130674;-40
2023/06/30 09:57:17;;;;;;;76.90;5.87;;;;;;;25.27;58.78;98895.59;7303760;19;130116;-41
2023/06/30 09:59:42;;;;;;;61.47;4.85;;;;;;;25.23;58.60;98886.41;7304743;19;128988;-38
2023/06/30 10:02:10;;;;;;;83.27;6.00;;;;;;;25.23;58.02;98881.16;7305547;19;129703;-42
2023/06/30 10:04:35;;;;;;;72.25;5.50;;;;;;;25.22;58.69;98888.22;7303650;19;129769;-40
2023/06/30 10:07:01;;;;;;;64.83;4.97;;;;;;;25.24;58.37;98885.41;7302840;19;130057;-40
2023/06/30 10:09:28;;;;;;;87.00;6.45;;;;;;;25.22;58.58;98876.91;7304631;19;129529;-38
2023/06/30 10:11:57;;;;;;;51.17;4.45;;;;;;;25.23;58.65;98868.00;7303749;19;131372;-39
2023/06/30 10:14:28;;;;;;;31.40;2.70;;;;;;;25.22;58.57;98866.38;7307780;19;128949;-39
2023/06/30 10:16:56;;;;;;;21.80;2.17;;;;;;;25.23;58.97;98878.53;7313546;19;129110;-42
2023/06/30 10:19:22;;;;;;;34.92;3.00;;;;;;;25.23;58.79;98878.53;7314285;19;129963;-41
2023/06/30 10:21:49;;;;;;;27.70;2.58;;;;;;;25.23;58.13;98878.53;7314563;19;130220;-41
2023/06/30 10:24:18;;;;;;;36.25;3.00;;;;;;;25.21;58.85;98875.25;7314036;19;128916;-40
2023/06/30 10:26:44;;;;;;;32.78;2.78;;;;;;;25.18;58.07;98854.56;7314000;19;129405;-39
2023/06/30 10:29:09;;;;;;;32.37;2.80;;;;;;;25.12;58.41;98850.84;7311947;19;129945;-40
2023/06/30 10:31:35;;;;;;;32.63;2.73;;;;;;;25.22;58.13;98866.38;7313972;19;131015;-39
2023/06/30 10:34:01;;;;;;;36.97;3.03;;;;;;;25.22;58.42;98866.38;7314724;19;129919;-41
2023/06/30 10:36:27;;;;;;;26.93;2.57;;;;;;;25.22;58.70;98866.38;7312176;19;128955;-41
2023/06/30 10:38:54;;;;;;;41.47;3.20;;;;;;;25.19;58.54;98861.47;7314881;19;129503;-42
2023/06/30 10:41:20;;;;;;;51.65;3.67;;;;;;;25.21;58.37;98856.84;7313526;19;129758;-39
2023/06/30 10:44:04;;;;;;;63.10;4.77;;;;;;;25.24;58.51;98864.38;7313527;19;129074;-39
2023/06/30 10:46:48;;;;;;;42.47;3.47;;;;;;;25.20;58.47;98858.66;7312677;19;129075;-41
2023/06/30 10:49:19;;;;;;;25.88;2.60;;;;;;;25.18;58.79;98851.94;7310982;19;130893;-39
2023/06/30 10:51:47;;;;;;;35.42;3.03;;;;;;;25.19;58.77;98864.09;7313911;19;129417;-42
2023/06/30 11:00:31;;;;;;;33.72;2.90;;;;;;;25.06;58.63;98856.00;7350038;19;128901;-42
2023/06/30 11:02:58;;;;;;;53.92;3.75;;;;;;;25.00;58.66;98859.38;7348422;19;129295;-40
2023/06/30 11:05:27;;;;;;;49.97;4.13;;;;;;;24.98;59.39;98856.09;7345505;19;129384;-42
2023/06/30 11:07:54;;;;;;;31.90;3.22;;;;;;;24.96;59.56;98844.94;7346286;19;129332;-39
2023/06/30 11:10:34;;;;;;;32.10;3.30;;;;;;;24.96;59.82;98850.19;7349069;19;129183;-41
2023/06/30 11:13:01;;;;;;;24.73;2.63;;;;;;;24.92;58.90;98846.28;7349029;19;128663;-40
2023/06/30 11:15:33;;;;;;;82.30;6.47;;;;;;;24.87;59.32;98830.25;7342725;19;129019;-40
2023/06/30 11:17:59;;;;;;;41.80;3.55;;;;;;;24.88;59.10;98837.13;7345160;19;129713;-42
2023/06/30 11:20:26;;;;;;;38.67;3.55;;;;;;;24.88;59.28;98839.75;7345209;19;129734;-41